Time;durP1;ratioP1;P1;durP2;ratioP2;P2;SDS_P1;SDS_P2;PMS_P1;PMS_P2;Temp;Humidity;BMP_temperature;BMP_pressure;BME280_temperature;BME280_humidity;BME280_pressure;Samples;Min_cycle;Max_cycle;Signal;HPM_P1;HPM_P2
2021/04/20 00:01:02;;;;;;;22.43;15.43;;;7.60;99.90;;;;;;5093576;28;20455;-79
2021/04/20 00:03:28;;;;;;;25.40;16.30;;;7.60;99.90;;;;;;5093806;28;20440;-79
2021/04/20 00:05:54;;;;;;;25.30;15.33;;;7.60;99.90;;;;;;5093733;28;20463;-79
2021/04/20 00:08:21;;;;;;;26.70;16.40;;;7.60;99.90;;;;;;5093744;28;20444;-79
2021/04/20 00:10:47;;;;;;;23.90;16.00;;;7.60;99.90;;;;;;5093522;28;20505;-79
2021/04/20 00:13:14;;;;;;;27.30;17.40;;;7.60;99.90;;;;;;5092919;28;20472;-79
2021/04/20 00:15:40;;;;;;;27.23;16.57;;;7.60;99.90;;;;;;5093607;28;20525;-79
2021/04/20 00:18:08;;;;;;;26.70;15.47;;;7.60;99.90;;;;;;5093619;28;20462;-79
2021/04/20 00:20:36;;;;;;;24.30;16.27;;;7.60;99.90;;;;;;5093570;28;20454;-79
2021/04/20 00:23:05;;;;;;;25.90;16.17;;;7.60;99.90;;;;;;5093567;28;20447;-79
2021/04/20 00:25:31;;;;;;;27.00;15.67;;;7.50;99.90;;;;;;5093464;28;20471;-79
2021/04/20 00:27:58;;;;;;;27.17;16.57;;;7.50;99.90;;;;;;5093094;28;20472;-79
2021/04/20 00:30:24;;;;;;;25.17;16.43;;;7.50;99.90;;;;;;5093513;28;20450;-79
2021/04/20 00:32:51;;;;;;;32.23;17.97;;;7.40;99.90;;;;;;5093350;28;20851;-79
2021/04/20 00:35:18;;;;;;;30.97;17.53;;;7.40;99.90;;;;;;5093358;28;20471;-79
2021/04/20 00:37:45;;;;;;;26.70;17.37;;;7.40;99.90;;;;;;5093395;28;20443;-79
2021/04/20 00:40:14;;;;;;;30.30;17.93;;;7.30;99.90;;;;;;5093363;28;20451;-79
2021/04/20 00:42:51;;;;;;;27.40;16.73;;;7.20;99.90;;;;;;5093296;28;20497;-79
2021/04/20 00:45:19;;;;;;;32.57;17.37;;;7.20;99.90;;;;;;5092997;28;20463;-78
2021/04/20 00:47:46;;;;;;;28.83;17.70;;;7.10;99.90;;;;;;5093018;28;20898;-79
2021/04/20 00:50:13;;;;;;;30.70;18.33;;;7.10;99.90;;;;;;5092984;28;20935;-79
2021/04/20 00:52:41;;;;;;;34.77;17.30;;;6.90;99.90;;;;;;5093203;28;20475;-79
2021/04/20 00:55:07;;;;;;;29.40;17.57;;;6.80;99.90;;;;;;5093157;28;20533;-79
2021/04/20 00:57:34;;;;;;;27.40;17.40;;;6.70;99.90;;;;;;5093244;28;20448;-78
2021/04/20 01:00:00;;;;;;;34.03;19.03;;;6.70;99.90;;;;;;5093219;28;20497;-79
2021/04/20 01:02:27;;;;;;;32.47;19.03;;;6.60;99.90;;;;;;5093185;28;20521;-79
2021/04/20 01:04:53;;;;;;;33.33;18.20;;;6.50;99.90;;;;;;5093075;28;20462;-79
2021/04/20 01:07:20;;;;;;;31.23;17.73;;;6.40;99.90;;;;;;5093151;28;20485;-79
2021/04/20 01:09:48;;;;;;;33.73;18.57;;;6.40;99.90;;;;;;5093109;28;20455;-79
2021/04/20 01:12:15;;;;;;;33.20;18.63;;;6.30;99.90;;;;;;5092688;28;20927;-79
2021/04/20 01:14:41;;;;;;;34.50;19.00;;;6.20;99.90;;;;;;5093009;28;20475;-79
2021/04/20 01:17:07;;;;;;;30.63;18.40;;;6.20;99.90;;;;;;5092969;28;20459;-78
2021/04/20 01:19:34;;;;;;;40.53;20.43;;;6.20;99.90;;;;;;5093028;28;20459;-77
2021/04/20 01:22:01;;;;;;;32.30;19.00;;;6.20;99.90;;;;;;5092981;28;20452;-77
2021/04/20 01:24:29;;;;;;;32.47;19.07;;;6.10;99.90;;;;;;5096419;28;20452;-77
2021/04/20 01:26:58;;;;;;;29.60;17.33;;;6.00;99.90;;;;;;5096268;28;20848;-77
2021/04/20 01:29:25;;;;;;;36.10;19.40;;;5.90;99.90;;;;;;5096710;28;20444;-77
2021/04/20 01:31:51;;;;;;;33.30;19.40;;;5.90;99.90;;;;;;5096613;28;20455;-77
2021/04/20 01:34:19;;;;;;;35.30;19.43;;;5.90;99.90;;;;;;5096140;28;20484;-77
2021/04/20 01:36:46;;;;;;;34.23;19.93;;;5.80;99.90;;;;;;5096552;28;20440;-77
2021/04/20 01:39:13;;;;;;;38.27;20.03;;;5.80;99.90;;;;;;5096225;28;20962;-77
2021/04/20 01:41:41;;;;;;;34.10;18.90;;;5.80;99.90;;;;;;5096458;28;20439;-77
2021/04/20 01:44:07;;;;;;;31.40;18.73;;;5.70;99.90;;;;;;5096485;28;20440;-77
2021/04/20 01:46:34;;;;;;;30.03;18.03;;;5.70;99.90;;;;;;5096336;28;20471;-77
2021/04/20 01:49:00;;;;;;;34.37;18.70;;;5.60;99.90;;;;;;5096326;28;20500;-78
2021/04/20 01:51:27;;;;;;;32.47;19.63;;;5.60;99.90;;;;;;5096320;28;20448;-77
2021/04/20 01:53:54;;;;;;;33.47;19.00;;;5.50;99.90;;;;;;5096240;28;20486;-77
2021/04/20 01:56:21;;;;;;;30.53;18.67;;;5.50;99.90;;;;;;5096134;28;20468;-77
2021/04/20 01:58:50;;;;;;;39.70;21.40;;;5.40;99.90;;;;;;5096183;28;20791;-77
2021/04/20 02:01:19;;;;;;;39.17;19.20;;;5.40;99.90;;;;;;5095810;28;20799;-77
2021/04/20 02:03:46;;;;;;;35.13;19.60;;;5.30;99.90;;;;;;5096066;28;20436;-77
2021/04/20 02:06:14;;;;;;;36.63;20.30;;;5.30;99.90;;;;;;5095955;28;20460;-77
2021/04/20 02:08:41;;;;;;;34.53;18.57;;;5.20;99.90;;;;;;5095964;28;20440;-77
2021/04/20 02:11:09;;;;;;;30.00;18.80;;;5.20;99.90;;;;;;5095908;28;20459;-77
2021/04/20 02:13:35;;;;;;;33.17;18.77;;;5.20;99.90;;;;;;5096277;28;20525;-83
2021/04/20 02:16:04;;;;;;;37.00;19.07;;;5.20;99.90;;;;;;5096849;28;20466;-83
2021/04/20 02:18:31;;;;;;;29.90;18.83;;;5.10;99.90;;;;;;5096525;28;20448;-82
2021/04/20 02:20:58;;;;;;;38.87;18.50;;;5.10;99.90;;;;;;5096502;28;20444;-83
2021/04/20 02:23:25;;;;;;;42.50;20.60;;;5.10;99.90;;;;;;5096260;28;20444;-83
2021/04/20 02:25:53;;;;;;;36.70;20.30;;;5.10;99.90;;;;;;5095938;28;20495;-82
2021/04/20 02:28:19;;;;;;;33.53;18.97;;;5.00;99.90;;;;;;5096562;28;20432;-83
2021/04/20 02:30:46;;;;;;;38.07;20.43;;;5.00;99.90;;;;;;5096618;28;20826;-83
2021/04/20 02:33:13;;;;;;;35.97;18.03;;;5.00;99.90;;;;;;5096341;28;20483;-83
2021/04/20 02:35:40;;;;;;;37.90;20.40;;;5.00;99.90;;;;;;5096234;28;20472;-82
2021/04/20 02:38:07;;;;;;;34.70;20.00;;;4.90;99.90;;;;;;5096448;28;20444;-82
2021/04/20 02:40:35;;;;;;;38.10;21.70;;;5.00;99.90;;;;;;5096234;28;20455;-83
2021/04/20 02:43:02;;;;;;;35.77;19.77;;;5.00;99.90;;;;;;5096209;28;20498;-83
2021/04/20 02:45:29;;;;;;;33.83;18.90;;;4.90;99.90;;;;;;5097609;28;20806;-82
2021/04/20 02:47:56;;;;;;;31.93;19.33;;;4.90;99.90;;;;;;5095333;28;20443;-77
2021/04/20 02:50:24;;;;;;;34.47;19.33;;;4.80;99.90;;;;;;5095146;28;20518;-77
2021/04/20 02:52:53;;;;;;;36.93;21.00;;;4.80;99.90;;;;;;5094733;28;20986;-77
2021/04/20 02:55:21;;;;;;;32.80;18.87;;;4.80;99.90;;;;;;5094664;28;21011;-77
2021/04/20 02:57:50;;;;;;;30.77;18.37;;;4.80;99.90;;;;;;5094953;28;20444;-77
2021/04/20 03:00:19;;;;;;;31.03;18.37;;;4.80;99.90;;;;;;5094676;28;20884;-77
2021/04/20 03:02:50;;;;;;;34.83;18.23;;;4.80;99.90;;;;;;5094923;28;20436;-77
2021/04/20 03:05:18;;;;;;;31.03;18.00;;;4.70;99.90;;;;;;5094839;28;20463;-77
2021/04/20 03:07:47;;;;;;;29.90;18.00;;;4.70;99.90;;;;;;5094792;28;20447;-77
2021/04/20 03:10:16;;;;;;;34.27;19.57;;;4.70;99.90;;;;;;5094760;28;20444;-77
2021/04/20 03:12:43;;;;;;;33.90;19.90;;;4.70;99.90;;;;;;5094651;28;20471;-77
2021/04/20 03:15:12;;;;;;;33.40;19.47;;;4.60;99.90;;;;;;5094601;28;20481;-77
2021/04/20 03:17:39;;;;;;;35.27;20.17;;;4.60;99.90;;;;;;5094569;28;20454;-77
2021/04/20 03:20:08;;;;;;;33.43;19.73;;;4.60;99.90;;;;;;5094589;28;20444;-77
2021/04/20 03:22:35;;;;;;;26.73;17.20;;;4.60;99.90;;;;;;5094548;28;20444;-77
2021/04/20 03:25:19;;;;;;;30.83;19.37;;;4.50;99.90;;;;;;5094422;28;20460;-77
2021/04/20 03:27:47;;;;;;;26.70;17.87;;;4.50;99.90;;;;;;5094107;28;20472;-77
2021/04/20 03:30:16;;;;;;;28.00;16.40;;;4.50;99.90;;;;;;5094385;28;20538;-77
2021/04/20 03:32:48;;;;;;;31.00;17.57;;;4.50;99.90;;;;;;5093973;28;20483;-77
2021/04/20 03:35:19;;;;;;;27.60;16.47;;;4.50;99.90;;;;;;5094288;28;20460;-77
2021/04/20 03:37:52;;;;;;;25.03;16.13;;;4.50;99.90;;;;;;5094322;28;20431;-74
2021/04/20 03:40:21;;;;;;;31.33;18.30;;;4.50;99.90;;;;;;5094231;28;20433;-74
2021/04/20 03:42:51;;;;;;;28.67;17.03;;;4.50;99.90;;;;;;5093904;28;20443;-74
2021/04/20 03:45:22;;;;;;;26.17;16.90;;;4.40;99.90;;;;;;5094065;28;20830;-74
2021/04/20 03:47:53;;;;;;;26.60;17.50;;;4.40;99.90;;;;;;5092986;28;20428;-74
2021/04/20 03:50:23;;;;;;;27.77;17.93;;;4.50;99.90;;;;;;5094050;28;20428;-74
2021/04/20 03:52:54;;;;;;;31.60;18.50;;;4.50;99.90;;;;;;5093619;28;20460;-74
2021/04/20 03:55:24;;;;;;;26.53;17.33;;;4.50;99.90;;;;;;5093881;28;20466;-75
2021/04/20 03:57:52;;;;;;;26.60;15.43;;;4.50;99.90;;;;;;5093916;28;20428;-75
2021/04/20 04:00:20;;;;;;;22.90;15.80;;;4.40;99.90;;;;;;5093917;28;20451;-74
2021/04/20 04:02:47;;;;;;;22.20;14.07;;;4.40;99.90;;;;;;5093846;28;20440;-74
2021/04/20 04:05:17;;;;;;;24.47;14.57;;;4.40;99.90;;;;;;5093737;28;20468;-74
2021/04/20 04:07:46;;;;;;;18.73;13.23;;;4.40;99.90;;;;;;5093796;28;20502;-74
2021/04/20 04:10:14;;;;;;;19.30;13.13;;;4.30;99.90;;;;;;5093742;28;20458;-74
2021/04/20 04:12:43;;;;;;;16.93;13.27;;;4.40;99.90;;;;;;5093670;28;20554;-74
2021/04/20 04:15:12;;;;;;;23.90;16.10;;;4.40;99.90;;;;;;5093582;28;20464;-74
2021/04/20 04:17:42;;;;;;;28.97;17.07;;;4.40;99.90;;;;;;5093328;28;20938;-74
2021/04/20 04:20:12;;;;;;;24.80;15.97;;;4.40;99.90;;;;;;5093349;28;20486;-74
2021/04/20 04:22:45;;;;;;;25.40;15.60;;;4.50;99.90;;;;;;5093797;28;20431;-77
2021/04/20 04:25:14;;;;;;;42.50;21.97;;;4.40;99.90;;;;;;5093490;28;20472;-77
2021/04/20 04:27:45;;;;;;;44.93;19.13;;;4.40;99.90;;;;;;5093274;28;20876;-77
2021/04/20 04:30:14;;;;;;;52.87;19.80;;;4.30;99.90;;;;;;5093517;28;20432;-78
2021/04/20 04:32:42;;;;;;;40.40;18.80;;;4.30;99.90;;;;;;5093441;28;20834;-78
2021/04/20 04:35:09;;;;;;;35.47;18.63;;;4.30;99.90;;;;;;5093377;28;20469;-78
2021/04/20 04:37:37;;;;;;;58.90;20.13;;;4.30;99.90;;;;;;5093164;28;20429;-78
2021/04/20 04:40:07;;;;;;;54.67;18.13;;;4.30;99.90;;;;;;5093598;28;20475;-78
2021/04/20 04:42:33;;;;;;;39.63;17.17;;;4.30;99.90;;;;;;5093365;28;20452;-78
2021/04/20 04:45:04;;;;;;;27.17;16.90;;;4.30;99.90;;;;;;5093513;28;20517;-74
2021/04/20 04:47:30;;;;;;;24.10;15.83;;;4.30;99.90;;;;;;5093091;28;20522;-74
2021/04/20 04:50:00;;;;;;;25.63;16.27;;;4.30;99.90;;;;;;5093279;28;20810;-74
2021/04/20 04:52:27;;;;;;;18.33;12.73;;;4.20;99.90;;;;;;5092873;28;20448;-74
2021/04/20 04:54:54;;;;;;;18.70;12.47;;;4.30;99.90;;;;;;5093250;28;20464;-74
2021/04/20 04:57:22;;;;;;;20.23;14.60;;;4.30;99.90;;;;;;5093403;28;20450;-78
2021/04/20 04:59:50;;;;;;;16.07;11.70;;;4.40;99.90;;;;;;5097260;28;20444;-78
2021/04/20 05:02:18;;;;;;;18.00;12.70;;;4.50;99.90;;;;;;5097283;28;20439;-78
2021/04/20 05:04:45;;;;;;;16.67;12.33;;;4.50;99.90;;;;;;5097102;28;20460;-78
2021/04/20 05:07:11;;;;;;;17.03;11.97;;;4.60;99.90;;;;;;5097193;28;20440;-78
2021/04/20 05:09:37;;;;;;;14.70;11.20;;;4.60;99.90;;;;;;5097151;28;20436;-78
2021/04/20 05:12:05;;;;;;;17.90;11.77;;;4.60;99.90;;;;;;5097067;28;20454;-78
2021/04/20 05:14:32;;;;;;;13.10;10.67;;;4.70;99.90;;;;;;5096849;28;20476;-78
2021/04/20 05:16:58;;;;;;;20.80;12.80;;;4.70;99.90;;;;;;5096903;28;20482;-78
2021/04/20 05:19:29;;;;;;;21.20;13.63;;;4.70;99.90;;;;;;5096891;28;20436;-78
2021/04/20 05:21:57;;;;;;;62.97;15.30;;;4.70;99.90;;;;;;5096911;28;20425;-78
2021/04/20 05:24:23;;;;;;;44.03;14.47;;;4.70;99.90;;;;;;5096421;28;20948;-78
2021/04/20 05:26:50;;;;;;;54.70;14.83;;;4.70;99.90;;;;;;5096508;28;20494;-79
2021/04/20 05:29:16;;;;;;;38.40;14.23;;;4.70;99.90;;;;;;5097187;28;20444;-78
2021/04/20 05:31:43;;;;;;;33.67;13.57;;;4.80;99.90;;;;;;5096705;28;20447;-78
2021/04/20 05:34:10;;;;;;;27.30;13.60;;;4.90;99.90;;;;;;5096260;28;20487;-78
2021/04/20 05:36:38;;;;;;;24.70;12.77;;;5.00;99.90;;;;;;5096214;28;20468;-78
2021/04/20 05:39:06;;;;;;;23.73;13.50;;;5.10;99.90;;;;;;5096515;28;20448;-78
2021/04/20 05:41:35;;;;;;;30.63;12.70;;;5.20;99.90;;;;;;5096486;28;20443;-78
2021/04/20 05:44:03;;;;;;;42.67;14.77;;;5.30;99.90;;;;;;5096414;28;20440;-78
2021/04/20 05:46:29;;;;;;;25.10;13.27;;;5.30;99.90;;;;;;5096350;28;20460;-78
2021/04/20 05:48:56;;;;;;;26.50;13.33;;;5.50;99.90;;;;;;5096402;28;20444;-78
2021/04/20 05:51:24;;;;;;;31.17;13.57;;;5.60;99.90;;;;;;5096275;28;20447;-78
2021/04/20 05:53:52;;;;;;;28.33;13.30;;;5.80;99.90;;;;;;5096180;28;20475;-78
2021/04/20 05:56:20;;;;;;;22.33;12.77;;;5.90;99.90;;;;;;5096138;28;20463;-78
2021/04/20 05:58:50;;;;;;;19.83;12.53;;;6.00;99.90;;;;;;5095896;28;20977;-78
2021/04/20 06:01:16;;;;;;;20.77;13.10;;;6.10;99.90;;;;;;5095799;28;20456;-78
2021/04/20 06:03:43;;;;;;;22.90;13.60;;;6.40;99.90;;;;;;5096057;28;20444;-78
2021/04/20 06:06:13;;;;;;;18.67;12.30;;;6.50;99.90;;;;;;5095982;28;20466;-78
2021/04/20 06:08:40;;;;;;;21.47;11.73;;;6.60;99.90;;;;;;5095808;28;20448;-78
2021/04/20 06:11:09;;;;;;;30.53;13.60;;;6.60;99.90;;;;;;5094852;28;20968;-78
2021/04/20 06:13:36;;;;;;;25.10;12.60;;;6.70;99.90;;;;;;5095843;28;20472;-79
2021/04/20 06:16:03;;;;;;;16.93;12.07;;;6.90;99.90;;;;;;5095404;28;20998;-78
2021/04/20 06:18:31;;;;;;;17.23;12.63;;;7.00;99.90;;;;;;5095757;28;20459;-78
2021/04/20 06:21:00;;;;;;;21.00;11.33;;;7.20;99.90;;;;;;5095734;28;20500;-78
2021/04/20 06:23:28;;;;;;;19.77;11.60;;;7.30;99.90;;;;;;5095691;28;20440;-78
2021/04/20 06:25:58;;;;;;;18.20;11.27;;;7.50;99.90;;;;;;5095355;28;20467;-78
2021/04/20 06:28:26;;;;;;;13.53;11.23;;;7.70;99.90;;;;;;5095697;28;20429;-79
2021/04/20 06:30:55;;;;;;;14.47;11.20;;;8.10;99.90;;;;;;5095538;28;20501;-78
2021/04/20 06:33:22;;;;;;;13.47;10.63;;;8.40;99.90;;;;;;5095394;28;20534;-78
2021/04/20 06:35:49;;;;;;;15.00;10.60;;;8.70;99.90;;;;;;5095394;28;20808;-78
2021/04/20 06:38:16;;;;;;;14.00;9.90;;;9.40;99.90;;;;;;5095443;28;20440;-79
2021/04/20 06:40:46;;;;;;;13.23;10.23;;;9.80;99.90;;;;;;5095028;28;20447;-79
2021/04/20 06:43:14;;;;;;;13.50;10.83;;;10.40;99.90;;;;;;5095347;28;20424;-79
2021/04/20 06:45:47;;;;;;;16.73;11.00;;;11.00;99.90;;;;;;5094853;28;20846;-79
2021/04/20 06:48:23;;;;;;;14.30;11.77;;;11.40;99.90;;;;;;5094922;28;20780;-79
2021/04/20 06:50:54;;;;;;;14.57;12.07;;;12.00;99.90;;;;;;5095236;28;20435;-79
2021/04/20 06:53:25;;;;;;;15.00;12.13;;;12.50;99.90;;;;;;5095068;28;20468;-79
2021/04/20 06:56:04;;;;;;;13.00;11.07;;;12.80;99.90;;;;;;5095046;28;20472;-79
2021/04/20 06:58:41;;;;;;;11.67;10.47;;;13.20;99.90;;;;;;5095043;28;20423;-79
2021/04/20 07:01:16;;;;;;;13.50;11.43;;;13.80;99.90;;;;;;5095035;28;20435;-79
2021/04/20 07:03:52;;;;;;;12.90;11.67;;;14.40;99.90;;;;;;5094625;28;20968;-79
2021/04/20 07:06:23;;;;;;;12.90;10.53;;;15.00;99.90;;;;;;5095475;28;20475;-79
2021/04/20 07:08:59;;;;;;;14.43;11.17;;;15.60;99.90;;;;;;5094842;28;20432;-79
2021/04/20 07:11:27;;;;;;;13.10;11.20;;;16.40;98.40;;;;;;5094472;28;20427;-79
2021/04/20 07:13:58;;;;;;;13.37;11.97;;;16.90;94.40;;;;;;5094388;28;20494;-79
2021/04/20 07:16:37;;;;;;;12.63;11.37;;;18.00;92.30;;;;;;5095493;28;20574;-79
2021/04/20 07:19:25;;;;;;;12.80;11.50;;;18.90;85.80;;;;;;5094958;28;20431;-79
2021/04/20 07:22:07;;;;;;;13.80;12.40;;;20.20;76.90;;;;;;5095330;28;20436;-79
2021/04/20 07:24:43;;;;;;;13.67;12.37;;;20.90;73.00;;;;;;5094535;28;20178;-79
2021/04/20 07:27:31;;;;;;;12.57;11.38;;;21.70;68.20;;;;;;5094032;28;20244;-79
2021/04/20 07:30:18;;;;;;;12.60;11.40;;;22.00;62.00;;;;;;5094504;28;20190;-79
2021/04/20 07:33:16;;;;;;;12.30;11.20;;;22.40;62.90;;;;;;5094361;28;20192;-79
2021/04/20 07:35:47;;;;;;;12.45;11.18;;;22.80;58.70;;;;;;5094373;28;20217;-80
2021/04/20 07:38:21;;;;;;;13.15;11.88;;;22.90;59.30;;;;;;5094282;28;20197;-81
2021/04/20 07:40:56;;;;;;;12.32;11.20;;;23.10;56.90;;;;;;5094238;28;20316;-81
2021/04/20 07:44:01;;;;;;;11.88;10.65;;;22.60;57.80;;;;;;5094776;28;20192;-81
2021/04/20 07:46:33;;;;;;;14.82;12.40;;;22.70;57.40;;;;;;5088569;28;20232;-81
2021/04/20 07:49:06;;;;;;;13.93;12.52;;;23.10;57.30;;;;;;5094161;28;20192;-81
2021/04/20 07:51:42;;;;;;;12.30;11.10;;;22.80;56.90;;;;;;5093805;28;20698;-81
2021/04/20 07:54:12;;;;;;;12.82;11.63;;;23.70;55.80;;;;;;5093669;28;20208;-81
2021/04/20 07:56:45;;;;;;;14.75;13.30;;;24.50;55.00;;;;;;5094230;28;20224;-81
2021/04/20 07:59:18;;;;;;;12.25;11.05;;;25.40;52.50;;;;;;5093828;28;20227;-81
2021/04/20 08:01:52;;;;;;;12.80;11.60;;;26.30;50.60;;;;;;5093593;28;20197;-81
2021/04/20 08:04:33;;;;;;;13.02;11.77;;;26.80;49.30;;;;;;5093528;28;20188;-81
2021/04/20 08:07:06;;;;;;;13.57;12.38;;;27.60;47.70;;;;;;5093573;28;20187;-81
2021/04/20 08:09:35;;;;;;;13.43;12.07;;;27.80;46.60;;;;;;5093822;28;20195;-81
2021/04/20 08:12:06;;;;;;;13.95;12.68;;;28.50;44.70;;;;;;5093415;28;20304;-81
2021/04/20 08:14:44;;;;;;;13.90;12.70;;;29.00;43.90;;;;;;5093617;28;20211;-81
2021/04/20 08:17:14;;;;;;;13.45;12.23;;;28.90;43.40;;;;;;5093692;28;20244;-78
2021/04/20 08:19:46;;;;;;;14.40;13.00;;;28.70;42.40;;;;;;5093585;28;20202;-78
2021/04/20 08:22:15;;;;;;;13.90;12.70;;;27.40;43.30;;;;;;5093464;28;20256;-78
2021/04/20 08:24:48;;;;;;;13.43;12.25;;;25.40;45.80;;;;;;5093114;28;20218;-78
2021/04/20 08:27:21;;;;;;;16.20;14.80;;;23.30;48.40;;;;;;5093188;28;20244;-78
2021/04/20 08:29:48;;;;;;;15.60;14.05;;;21.30;50.90;;;;;;5093592;28;20549;-77
2021/04/20 08:32:20;;;;;;;15.75;14.20;;;19.70;54.20;;;;;;5092720;28;20197;-78
2021/04/20 08:34:52;;;;;;;15.73;14.13;;;18.30;56.70;;;;;;5093227;28;20228;-78
2021/04/20 08:37:28;;;;;;;16.60;14.47;;;17.20;59.20;;;;;;5093122;28;20408;-78
2021/04/20 08:40:06;;;;;;;18.67;15.37;;;16.30;61.40;;;;;;5093725;28;20436;-78
2021/04/20 08:42:37;;;;;;;18.10;14.40;;;15.60;64.50;;;;;;5093076;28;20432;-78
2021/04/20 08:45:11;;;;;;;13.80;12.40;;;16.20;66.90;;;;;;5093317;28;20468;-78
2021/04/20 08:47:46;;;;;;;16.30;13.60;;;17.30;63.00;;;;;;5093083;28;20420;-77
2021/04/20 08:50:18;;;;;;;18.97;14.17;;;17.10;62.30;;;;;;5093019;28;20434;-81
2021/04/20 08:52:52;;;;;;;18.53;14.53;;;16.70;63.90;;;;;;5092042;28;20450;-81
2021/04/20 08:55:32;;;;;;;19.10;13.27;;;16.40;65.30;;;;;;5096359;28;20464;-85
2021/04/20 08:58:34;;;;;;;16.57;14.00;;;16.30;65.50;;;;;;5096885;28;20436;-84
2021/04/20 09:01:18;;;;;;;17.80;13.87;;;15.90;67.40;;;;;;5094343;28;20443;-84
2021/04/20 09:03:52;;;;;;;16.70;13.50;;;16.50;66.80;;;;;;5094633;28;20478;-84
2021/04/20 09:06:28;;;;;;;16.90;14.17;;;17.80;64.90;;;;;;5095535;28;20470;-85
2021/04/20 09:09:00;;;;;;;16.87;13.70;;;18.90;61.70;;;;;;5095945;28;20432;-84
2021/04/20 09:11:31;;;;;;;18.33;12.97;;;19.20;60.10;;;;;;5096064;28;20477;-85
2021/04/20 09:14:01;;;;;;;13.90;12.07;;;18.70;60.00;;;;;;5095754;28;20478;-84
2021/04/20 09:16:33;;;;;;;14.83;13.10;;;18.10;61.40;;;;;;5096205;28;20468;-84
2021/04/20 09:19:02;;;;;;;15.47;12.63;;;17.20;63.30;;;;;;5095460;28;20471;-84
2021/04/20 09:21:37;;;;;;;14.70;12.10;;;16.30;64.90;;;;;;5094822;28;20802;-84
2021/04/20 09:24:15;;;;;;;16.13;12.70;;;15.90;66.80;;;;;;5097831;28;20424;-84
2021/04/20 09:26:47;;;;;;;15.40;12.03;;;15.60;67.60;;;;;;5097759;28;20483;-84
2021/04/20 09:29:16;;;;;;;15.40;12.30;;;15.40;68.30;;;;;;5096714;28;20435;-84
2021/04/20 09:31:53;;;;;;;17.03;12.87;;;15.40;70.50;;;;;;5095803;28;20435;-84
2021/04/20 09:34:22;;;;;;;16.57;12.13;;;15.40;70.10;;;;;;5095534;28;20479;-85
2021/04/20 09:36:53;;;;;;;16.30;11.80;;;15.90;70.20;;;;;;5095354;28;20499;-85
2021/04/20 09:39:21;;;;;;;14.57;12.43;;;16.20;67.90;;;;;;5096599;28;20431;-85
2021/04/20 09:41:50;;;;;;;14.20;11.90;;;16.20;65.30;;;;;;5096126;28;20519;-84
2021/04/20 09:44:34;;;;;;;16.47;12.57;;;15.80;65.40;;;;;;5096432;28;20427;-84
2021/04/20 09:47:31;;;;;;;14.40;11.50;;;15.60;65.80;;;;;;5099489;28;20479;-84
2021/04/20 09:50:12;;;;;;;14.47;11.47;;;15.60;67.60;;;;;;5098606;28;20417;-85
2021/04/20 09:52:48;;;;;;;15.00;11.17;;;15.90;67.20;;;;;;5099688;28;20440;-85
2021/04/20 09:55:20;;;;;;;14.60;10.70;;;16.10;66.20;;;;;;5098352;28;20483;-84
2021/04/20 09:57:49;;;;;;;11.07;9.87;;;15.90;65.60;;;;;;5097979;28;20466;-85
2021/04/20 10:00:18;;;;;;;15.73;10.80;;;15.80;66.60;;;;;;5098235;28;20432;-85
2021/04/20 10:02:54;;;;;;;10.60;9.47;;;15.70;65.40;;;;;;5098935;28;20444;-84
2021/04/20 10:05:32;;;;;;;9.57;7.87;;;15.50;65.60;;;;;;5097791;28;20456;-84
2021/04/20 10:08:22;;;;;;;8.70;7.53;;;15.60;63.10;;;;;;5098513;28;20424;-84
2021/04/20 10:10:57;;;;;;;7.77;6.30;;;15.70;67.30;;;;;;5096802;28;20421;-84
2021/04/20 10:13:41;;;;;;;10.70;8.13;;;16.30;62.70;;;;;;5097483;28;20487;-85
2021/04/20 10:16:14;;;;;;;8.63;7.73;;;16.80;62.60;;;;;;5096946;28;20893;-84
2021/04/20 10:19:07;;;;;;;9.87;7.60;;;17.50;59.50;;;;;;5096537;28;20833;-84
2021/04/20 10:21:39;;;;;;;8.20;6.77;;;17.90;60.50;;;;;;5096379;28;20955;-84
2021/04/20 10:24:16;;;;;;;10.80;9.10;;;18.00;57.20;;;;;;5096621;28;20425;-85
2021/04/20 10:26:47;;;;;;;8.07;7.27;;;17.70;57.40;;;;;;5096684;28;20471;-84
2021/04/20 10:29:19;;;;;;;8.23;7.43;;;17.90;58.20;;;;;;5096830;28;20786;-84
2021/04/20 10:31:55;;;;;;;9.40;7.17;;;17.90;57.40;;;;;;5096376;28;20826;-85
2021/04/20 10:34:22;;;;;;;9.10;7.47;;;17.80;57.90;;;;;;5096363;28;20460;-84
2021/04/20 10:36:53;;;;;;;9.37;7.77;;;17.80;57.80;;;;;;5095829;28;20443;-84
2021/04/20 10:39:23;;;;;;;8.30;7.50;;;17.50;58.30;;;;;;5096066;28;20428;-84
2021/04/20 10:41:51;;;;;;;7.20;6.47;;;17.50;58.90;;;;;;5096241;28;20445;-84
2021/04/20 10:44:20;;;;;;;6.70;6.00;;;18.10;55.40;;;;;;5096446;28;20493;-85
2021/04/20 10:46:54;;;;;;;5.80;5.20;;;18.20;54.40;;;;;;5096769;28;20518;-84
2021/04/20 10:49:23;;;;;;;7.20;6.50;;;17.80;54.10;;;;;;5096221;28;20450;-84
2021/04/20 10:51:54;;;;;;;6.27;5.33;;;17.30;55.50;;;;;;5096135;28;20420;-83
2021/04/20 10:54:23;;;;;;;5.80;5.30;;;16.80;55.90;;;;;;5096142;28;20468;-84
2021/04/20 10:56:51;;;;;;;6.20;5.60;;;16.30;56.70;;;;;;5095287;28;20974;-84
2021/04/20 10:59:26;;;;;;;7.20;6.07;;;16.10;58.80;;;;;;5095497;28;20444;-84
2021/04/20 11:01:54;;;;;;;6.00;5.40;;;16.00;58.20;;;;;;5095374;28;20501;-84
2021/04/20 11:04:23;;;;;;;6.23;5.50;;;16.00;58.20;;;;;;5095320;28;20427;-85
2021/04/20 11:07:19;;;;;;;6.90;6.00;;;16.10;58.30;;;;;;5095503;28;20464;-84
2021/04/20 11:09:47;;;;;;;7.37;6.00;;;16.10;59.10;;;;;;5095982;28;20841;-84
2021/04/20 11:12:16;;;;;;;7.30;5.90;;;15.90;58.70;;;;;;5095872;28;20435;-84
2021/04/20 11:14:44;;;;;;;6.10;5.50;;;15.90;58.80;;;;;;5095510;28;20492;-84
2021/04/20 11:17:28;;;;;;;6.90;5.33;;;15.90;58.20;;;;;;5095725;28;20448;-77
2021/04/20 11:20:08;;;;;;;6.03;5.43;;;16.00;57.60;;;;;;5094577;28;20452;-77
2021/04/20 11:22:40;;;;;;;6.23;5.63;;;16.10;58.10;;;;;;5095338;28;20802;-80
2021/04/20 11:25:18;;;;;;;5.57;4.97;;;16.00;58.10;;;;;;5094397;28;20967;-80
2021/04/20 11:27:47;;;;;;;7.57;5.23;;;16.00;57.10;;;;;;5094257;28;20475;-80
2021/04/20 11:30:16;;;;;;;6.20;5.70;;;16.00;56.80;;;;;;5094646;28;20432;-80
2021/04/20 11:32:48;;;;;;;5.30;4.80;;;15.90;58.20;;;;;;5094173;28;20949;-80
2021/04/20 11:35:20;;;;;;;6.20;5.60;;;15.90;58.80;;;;;;5094341;28;20491;-80
2021/04/20 11:37:47;;;;;;;5.20;4.80;;;15.90;58.80;;;;;;5094414;28;20428;-80
2021/04/20 11:40:17;;;;;;;4.20;3.90;;;15.90;57.70;;;;;;5095003;28;20432;-80
2021/04/20 11:42:47;;;;;;;4.87;4.33;;;16.00;56.90;;;;;;5094013;28;20485;-81
2021/04/20 11:45:18;;;;;;;6.60;5.90;;;16.10;57.40;;;;;;5093879;28;20997;-80
2021/04/20 11:48:00;;;;;;;10.63;8.30;;;16.10;58.30;;;;;;5093991;28;20431;-80
2021/04/20 11:50:31;;;;;;;10.47;8.10;;;16.30;60.90;;;;;;5094329;28;20432;-80
2021/04/20 11:53:00;;;;;;;11.23;8.83;;;16.20;61.00;;;;;;5094185;28;20443;-80
2021/04/20 11:55:37;;;;;;;11.43;7.97;;;16.20;60.20;;;;;;5093997;28;20460;-79
2021/04/20 11:58:10;;;;;;;10.77;7.90;;;16.10;61.20;;;;;;5094094;28;20481;-80
2021/04/20 12:00:38;;;;;;;10.43;8.63;;;15.90;63.20;;;;;;5093864;28;20448;-80
2021/04/20 12:03:20;;;;;;;12.87;9.30;;;15.80;63.90;;;;;;5094001;28;20790;-80
2021/04/20 12:05:48;;;;;;;10.37;8.10;;;15.80;63.60;;;;;;5093345;28;20468;-80
2021/04/20 12:08:23;;;;;;;8.77;7.60;;;15.80;65.10;;;;;;5093060;28;20432;-80
2021/04/20 12:10:52;;;;;;;9.53;7.60;;;15.90;65.90;;;;;;5093807;28;20432;-80
2021/04/20 12:13:23;;;;;;;9.37;7.93;;;16.30;64.20;;;;;;5093354;28;20862;-79
2021/04/20 12:15:55;;;;;;;10.07;8.50;;;16.60;63.30;;;;;;5093829;28;20460;-77
2021/04/20 12:18:22;;;;;;;10.50;8.27;;;16.70;63.70;;;;;;5093686;28;20428;-77
2021/04/20 12:20:49;;;;;;;10.13;8.33;;;16.70;62.00;;;;;;5093338;28;20816;-76
2021/04/20 12:23:19;;;;;;;9.03;7.17;;;16.60;62.80;;;;;;5093698;28;20420;-77
2021/04/20 12:25:49;;;;;;;11.13;9.80;;;16.60;62.40;;;;;;5093160;28;20468;-77
2021/04/20 12:28:18;;;;;;;10.07;8.67;;;16.40;59.50;;;;;;5093461;28;20416;-76
2021/04/20 12:30:48;;;;;;;9.03;8.13;;;16.10;61.50;;;;;;5093330;28;20436;-77
2021/04/20 12:33:23;;;;;;;9.73;7.90;;;16.00;61.80;;;;;;5093863;28;20436;-76
2021/04/20 12:35:50;;;;;;;10.00;8.13;;;16.00;62.00;;;;;;5093367;28;20488;-76
2021/04/20 12:38:21;;;;;;;8.57;7.50;;;16.00;61.30;;;;;;5093353;28;20492;-76
2021/04/20 12:40:55;;;;;;;11.00;8.40;;;16.00;62.00;;;;;;5093413;28;20433;-76
2021/04/20 12:43:24;;;;;;;10.90;8.10;;;16.00;62.00;;;;;;5093095;28;20903;-78
2021/04/20 12:45:52;;;;;;;10.03;7.80;;;15.90;60.30;;;;;;5093307;28;20460;-79
2021/04/20 12:48:26;;;;;;;7.17;6.40;;;15.70;61.20;;;;;;5093369;28;20517;-79
2021/04/20 12:50:53;;;;;;;8.70;6.53;;;15.80;61.60;;;;;;5093390;28;20431;-79
2021/04/20 12:53:22;;;;;;;9.53;7.60;;;15.80;61.60;;;;;;5095080;28;20451;-84